Time;durP1;ratioP1;P1;durP2;ratioP2;P2;SDS_P1;SDS_P2;PMS_P1;PMS_P2;Temp;Humidity;BMP_temperature;BMP_pressure;BME280_temperature;BME280_humidity;BME280_pressure;Samples;Min_cycle;Max_cycle;Signal;HPM_P1;HPM_P2
2023/11/27 00:00:43;;;;;;;4.63;2.53;;;5.20;98.00;;;;;;4973097;28;20515;-66
2023/11/27 00:03:10;;;;;;;5.53;2.80;;;5.20;98.00;;;;;;4971948;28;20929;-66
2023/11/27 00:05:37;;;;;;;4.70;2.50;;;5.30;98.00;;;;;;4973000;28;20449;-66
2023/11/27 00:08:05;;;;;;;5.90;2.90;;;5.30;98.00;;;;;;4974061;28;20455;-66
2023/11/27 00:10:32;;;;;;;5.60;2.47;;;5.40;98.00;;;;;;4976986;28;20829;-66
2023/11/27 00:13:00;;;;;;;4.60;2.80;;;5.40;98.00;;;;;;4976954;28;20450;-66
2023/11/27 00:15:27;;;;;;;4.63;2.87;;;5.30;98.00;;;;;;4976921;28;20449;-66
2023/11/27 00:17:55;;;;;;;4.20;2.47;;;5.10;98.00;;;;;;4975659;28;20853;-66
2023/11/27 00:20:22;;;;;;;5.43;2.40;;;5.10;98.00;;;;;;4975619;28;20446;-66
2023/11/27 00:22:50;;;;;;;3.47;2.50;;;5.10;98.00;;;;;;4976891;28;20458;-66
2023/11/27 00:25:17;;;;;;;4.07;2.43;;;5.00;98.00;;;;;;4977019;28;20464;-66
2023/11/27 00:27:47;;;;;;;6.97;2.57;;;5.00;98.00;;;;;;4977026;28;20470;-66
2023/11/27 00:30:16;;;;;;;4.67;2.50;;;5.00;98.00;;;;;;4991542;28;20492;-66
2023/11/27 00:32:43;;;;;;;7.63;2.80;;;5.00;98.00;;;;;;4976590;28;20462;-66
2023/11/27 00:35:10;;;;;;;5.90;2.73;;;4.90;98.00;;;;;;4976607;28;20456;-66
2023/11/27 00:37:37;;;;;;;3.87;2.77;;;4.70;98.00;;;;;;4976318;28;20488;-66
2023/11/27 00:40:06;;;;;;;3.87;2.70;;;4.70;98.00;;;;;;4976257;28;21083;-66
2023/11/27 00:42:33;;;;;;;4.40;2.20;;;4.70;98.00;;;;;;4975313;28;20466;-66
2023/11/27 00:45:00;;;;;;;4.10;2.70;;;4.60;98.00;;;;;;4976286;28;20863;-66
2023/11/27 00:47:28;;;;;;;8.07;3.20;;;4.40;98.00;;;;;;4976160;28;20455;-66
2023/11/27 00:49:55;;;;;;;4.57;2.60;;;4.40;98.00;;;;;;4975972;28;20482;-66
2023/11/27 00:52:23;;;;;;;4.80;2.90;;;4.30;98.00;;;;;;4976248;28;20459;-66
2023/11/27 00:54:50;;;;;;;6.20;2.70;;;4.20;98.00;;;;;;4976058;28;20458;-66
2023/11/27 00:57:18;;;;;;;3.13;2.40;;;4.10;98.00;;;;;;4976201;28;20480;-66
2023/11/27 00:59:46;;;;;;;4.43;2.53;;;4.20;98.00;;;;;;4975809;28;20478;-66
2023/11/27 01:02:13;;;;;;;2.80;2.20;;;4.30;98.00;;;;;;4974663;28;20945;-66
2023/11/27 01:04:42;;;;;;;6.93;3.10;;;4.20;98.00;;;;;;4974768;28;20459;-66
2023/11/27 01:07:12;;;;;;;3.80;2.30;;;4.10;98.00;;;;;;4976068;28;20463;-66
2023/11/27 01:09:39;;;;;;;2.90;2.10;;;4.10;98.00;;;;;;4975890;28;20457;-66
2023/11/27 01:12:07;;;;;;;6.10;2.80;;;4.00;98.00;;;;;;4975558;28;20483;-66
2023/11/27 01:14:34;;;;;;;4.23;2.80;;;4.00;98.00;;;;;;4975784;28;20522;-66
2023/11/27 01:17:01;;;;;;;4.03;2.50;;;3.90;98.00;;;;;;4975827;28;20874;-66
2023/11/27 01:19:28;;;;;;;4.00;2.57;;;3.90;98.00;;;;;;4974234;28;20511;-66
2023/11/27 01:21:57;;;;;;;5.10;2.47;;;3.90;98.00;;;;;;4974563;28;20464;-66
2023/11/27 01:24:25;;;;;;;4.17;2.40;;;3.90;98.00;;;;;;4975642;28;20542;-66
2023/11/27 01:26:52;;;;;;;4.50;2.57;;;3.90;98.00;;;;;;4975689;28;20475;-66
2023/11/27 01:29:21;;;;;;;4.20;2.47;;;3.90;98.00;;;;;;4975340;28;20601;-66
2023/11/27 01:31:49;;;;;;;6.33;2.87;;;4.00;98.00;;;;;;4975328;28;21058;-66
2023/11/27 01:34:16;;;;;;;3.70;2.50;;;3.90;98.00;;;;;;4975275;28;20478;-66
2023/11/27 01:36:45;;;;;;;5.23;2.60;;;3.90;98.00;;;;;;4975474;28;20459;-66
2023/11/27 01:39:14;;;;;;;12.03;2.97;;;4.00;98.00;;;;;;4975161;28;20450;-66
2023/11/27 01:41:41;;;;;;;3.67;2.27;;;4.10;98.00;;;;;;4975402;28;20556;-66
2023/11/27 01:44:08;;;;;;;3.50;2.00;;;4.20;98.00;;;;;;4975038;28;20558;-66
2023/11/27 01:46:51;;;;;;;3.93;2.50;;;4.30;98.00;;;;;;4975403;28;20840;-66
2023/11/27 01:49:20;;;;;;;3.50;2.33;;;4.40;98.00;;;;;;4975190;28;20489;-66
2023/11/27 01:51:47;;;;;;;3.03;2.17;;;4.30;98.00;;;;;;4975248;28;20821;-66
2023/11/27 01:54:16;;;;;;;5.00;2.50;;;4.40;98.00;;;;;;4975012;28;20469;-66
2023/11/27 01:56:47;;;;;;;5.43;2.53;;;4.30;98.00;;;;;;4974041;28;20875;-66
2023/11/27 01:59:15;;;;;;;3.40;2.23;;;4.40;98.00;;;;;;4974812;28;20464;-66
2023/11/27 02:01:43;;;;;;;3.30;2.40;;;4.50;98.00;;;;;;4975050;28;20461;-66
2023/11/27 02:04:11;;;;;;;4.77;2.40;;;4.40;98.00;;;;;;4975050;28;20542;-66
2023/11/27 02:06:38;;;;;;;3.00;2.20;;;4.40;98.00;;;;;;4973950;28;20459;-66
2023/11/27 02:09:05;;;;;;;6.37;2.43;;;4.40;98.00;;;;;;4974895;28;20466;-66
2023/11/27 02:11:33;;;;;;;5.67;2.73;;;4.40;98.00;;;;;;4974854;28;20988;-66
2023/11/27 02:14:01;;;;;;;3.43;2.40;;;4.30;98.00;;;;;;4974932;28;20453;-66
2023/11/27 02:16:28;;;;;;;4.13;2.23;;;4.30;98.00;;;;;;4975121;28;20469;-66
2023/11/27 02:18:55;;;;;;;5.17;2.57;;;4.30;98.00;;;;;;4974407;28;20505;-66
2023/11/27 02:21:22;;;;;;;3.10;2.23;;;4.20;98.00;;;;;;4974732;28;20474;-66
2023/11/27 02:23:51;;;;;;;4.47;2.50;;;4.10;98.00;;;;;;4974563;28;20469;-66
2023/11/27 02:26:18;;;;;;;3.90;2.30;;;4.00;98.00;;;;;;4974232;28;20945;-66
2023/11/27 02:28:45;;;;;;;3.60;2.07;;;4.00;98.00;;;;;;4974290;28;20493;-66
2023/11/27 02:31:12;;;;;;;3.20;2.17;;;4.10;98.00;;;;;;4973804;28;20999;-66
2023/11/27 02:33:40;;;;;;;4.00;2.47;;;4.00;98.00;;;;;;4974210;28;20447;-66
2023/11/27 02:36:08;;;;;;;4.73;2.40;;;4.00;98.00;;;;;;4973962;28;20509;-66
2023/11/27 02:38:36;;;;;;;4.27;2.47;;;4.00;98.00;;;;;;4974190;28;21126;-66
2023/11/27 02:41:05;;;;;;;3.57;2.37;;;4.00;98.00;;;;;;4972970;28;20461;-66
2023/11/27 02:43:32;;;;;;;3.40;2.37;;;4.00;98.00;;;;;;4974018;28;20487;-66
2023/11/27 02:45:59;;;;;;;4.40;2.07;;;3.80;98.00;;;;;;4972495;28;20447;-66
2023/11/27 02:48:26;;;;;;;6.53;2.20;;;3.90;98.00;;;;;;4974046;28;20451;-66
2023/11/27 02:50:54;;;;;;;3.67;2.47;;;3.70;98.00;;;;;;4973958;28;20555;-66
2023/11/27 02:53:22;;;;;;;4.87;2.80;;;3.70;98.00;;;;;;4973969;28;20525;-66
2023/11/27 02:55:49;;;;;;;4.37;2.43;;;3.60;98.00;;;;;;4974067;28;20460;-66
2023/11/27 02:58:18;;;;;;;3.53;2.10;;;3.60;98.00;;;;;;4973728;28;20500;-66
2023/11/27 03:00:45;;;;;;;3.63;2.40;;;3.70;98.00;;;;;;4973740;28;20486;-66
2023/11/27 03:03:13;;;;;;;5.83;2.57;;;3.70;98.00;;;;;;4973805;28;20907;-66
2023/11/27 03:05:40;;;;;;;3.43;2.40;;;3.70;98.00;;;;;;4974004;28;20459;-66
2023/11/27 03:08:07;;;;;;;3.70;2.30;;;3.70;98.00;;;;;;4973575;28;20462;-66
2023/11/27 03:10:35;;;;;;;3.50;2.20;;;3.70;98.00;;;;;;4973651;28;20453;-66
2023/11/27 03:13:02;;;;;;;6.23;2.63;;;3.60;98.00;;;;;;4973393;28;20457;-66
2023/11/27 03:15:30;;;;;;;4.50;2.40;;;3.70;98.00;;;;;;4973756;28;20459;-66
2023/11/27 03:17:57;;;;;;;4.23;2.33;;;3.90;98.00;;;;;;4973624;28;20463;-66
2023/11/27 03:20:24;;;;;;;3.00;2.00;;;4.00;98.00;;;;;;4973442;28;20459;-66
2023/11/27 03:22:51;;;;;;;3.80;2.70;;;3.90;98.00;;;;;;4973361;28;20454;-65
2023/11/27 03:25:19;;;;;;;3.50;2.13;;;3.90;98.00;;;;;;4973228;28;20480;-66
2023/11/27 03:27:46;;;;;;;3.93;2.50;;;3.80;98.00;;;;;;4973235;28;20534;-66
2023/11/27 03:30:14;;;;;;;3.20;2.30;;;3.70;98.00;;;;;;4973080;28;20460;-66
2023/11/27 03:32:43;;;;;;;2.77;1.90;;;3.80;98.00;;;;;;4973250;28;20495;-66
2023/11/27 03:35:10;;;;;;;4.50;2.43;;;3.80;98.00;;;;;;4973115;28;20459;-65
2023/11/27 03:37:37;;;;;;;3.90;2.67;;;3.70;98.00;;;;;;4973143;28;20472;-66
2023/11/27 03:40:05;;;;;;;3.50;2.20;;;3.80;98.00;;;;;;4973002;28;20456;-66
2023/11/27 03:42:32;;;;;;;4.40;2.03;;;3.90;98.00;;;;;;4972086;28;20452;-66
2023/11/27 03:45:01;;;;;;;6.43;2.00;;;3.90;98.00;;;;;;4973065;28;20453;-65
2023/11/27 03:47:28;;;;;;;3.63;2.20;;;3.90;98.00;;;;;;4972121;28;20451;-66
2023/11/27 03:49:58;;;;;;;7.17;2.90;;;4.00;98.00;;;;;;4972991;28;20957;-66
2023/11/27 03:52:25;;;;;;;4.40;3.03;;;4.00;98.00;;;;;;4973007;28;20490;-66
2023/11/27 03:54:52;;;;;;;3.90;2.20;;;3.90;98.00;;;;;;4972936;28;20449;-66
2023/11/27 03:57:19;;;;;;;3.50;2.30;;;3.90;98.00;;;;;;4971821;28;20959;-66
2023/11/27 03:59:48;;;;;;;4.60;2.50;;;3.90;98.00;;;;;;4972046;28;20544;-66
2023/11/27 04:02:15;;;;;;;7.70;2.37;;;4.00;98.00;;;;;;4973329;28;20834;-66
2023/11/27 04:04:45;;;;;;;5.03;2.73;;;4.10;98.00;;;;;;4972893;28;20977;-67
2023/11/27 04:07:13;;;;;;;3.77;2.33;;;4.00;98.00;;;;;;4971194;28;20450;-66
2023/11/27 04:09:40;;;;;;;4.90;2.30;;;3.90;98.00;;;;;;4973002;28;20459;-66
2023/11/27 04:12:08;;;;;;;4.23;2.33;;;3.80;98.00;;;;;;4972545;28;20496;-66
2023/11/27 04:14:35;;;;;;;4.93;2.50;;;3.80;98.00;;;;;;4972375;28;20457;-66
2023/11/27 04:17:03;;;;;;;3.63;2.47;;;3.80;98.00;;;;;;4972654;28;20926;-66
2023/11/27 04:19:30;;;;;;;3.67;2.10;;;3.70;98.00;;;;;;4972638;28;20556;-66
2023/11/27 04:21:58;;;;;;;3.50;2.40;;;3.70;98.00;;;;;;4972787;28;20454;-66
2023/11/27 04:24:26;;;;;;;7.20;2.53;;;3.70;98.00;;;;;;4972353;28;20475;-66
2023/11/27 04:26:53;;;;;;;5.30;2.70;;;3.70;98.00;;;;;;4972619;28;21031;-66
2023/11/27 04:29:21;;;;;;;3.93;2.37;;;3.60;98.00;;;;;;4987506;28;20962;-66
2023/11/27 04:31:49;;;;;;;4.63;2.33;;;3.60;98.00;;;;;;4972569;28;20491;-66
2023/11/27 04:34:17;;;;;;;5.00;2.70;;;3.50;98.00;;;;;;4972319;28;20461;-66
2023/11/27 04:36:44;;;;;;;5.67;2.70;;;3.60;98.00;;;;;;4971182;28;20464;-66
2023/11/27 04:39:11;;;;;;;4.47;2.70;;;3.50;98.00;;;;;;4971978;28;20498;-65
2023/11/27 04:41:42;;;;;;;4.53;2.63;;;3.60;98.00;;;;;;4970804;28;20470;-66
2023/11/27 04:44:09;;;;;;;3.90;2.53;;;3.70;98.00;;;;;;4972066;28;20535;-66
2023/11/27 04:46:36;;;;;;;6.40;2.50;;;3.60;98.00;;;;;;4972395;28;20463;-66
2023/11/27 04:49:03;;;;;;;6.93;2.60;;;3.60;98.00;;;;;;4972225;28;20459;-66
2023/11/27 04:51:31;;;;;;;4.90;2.60;;;3.50;98.00;;;;;;4972336;28;20489;-66
2023/11/27 04:54:02;;;;;;;5.00;2.87;;;3.60;98.00;;;;;;4972919;28;20977;-66
2023/11/27 04:56:29;;;;;;;5.00;2.20;;;3.60;98.00;;;;;;4975878;28;20478;-66
2023/11/27 04:59:02;;;;;;;4.90;2.57;;;3.60;98.00;;;;;;4975830;28;20469;-66
2023/11/27 05:01:29;;;;;;;4.40;2.33;;;3.60;98.00;;;;;;4975734;28;20456;-66
2023/11/27 05:03:57;;;;;;;3.03;2.20;;;3.60;98.00;;;;;;4975754;28;20462;-66
2023/11/27 05:06:24;;;;;;;4.97;2.47;;;3.60;98.00;;;;;;4975697;28;20453;-66
2023/11/27 05:08:51;;;;;;;5.00;2.20;;;3.50;98.00;;;;;;4975756;28;20482;-66
2023/11/27 05:11:19;;;;;;;2.63;2.10;;;3.50;98.00;;;;;;4975474;28;20464;-66
2023/11/27 05:13:46;;;;;;;4.97;2.37;;;3.50;98.00;;;;;;4975504;28;20454;-66
2023/11/27 05:16:15;;;;;;;8.20;3.07;;;3.40;98.00;;;;;;4975706;28;20880;-66
2023/11/27 05:18:44;;;;;;;5.37;2.70;;;3.40;98.00;;;;;;4975562;28;20454;-66
2023/11/27 05:21:12;;;;;;;6.83;2.97;;;3.40;98.00;;;;;;4974445;28;20484;-66
2023/11/27 05:23:41;;;;;;;5.30;2.60;;;3.40;98.00;;;;;;4975514;28;20538;-66
2023/11/27 05:26:08;;;;;;;4.10;2.60;;;3.30;98.00;;;;;;4975489;28;20954;-66
2023/11/27 05:28:35;;;;;;;5.67;3.07;;;3.20;98.00;;;;;;4975430;28;20450;-66
2023/11/27 05:31:03;;;;;;;6.70;3.60;;;3.20;98.00;;;;;;4975373;28;20529;-66
2023/11/27 05:33:31;;;;;;;7.00;2.97;;;3.20;98.00;;;;;;4975169;28;20488;-66
2023/11/27 05:35:58;;;;;;;6.13;3.03;;;3.20;98.00;;;;;;4975380;28;20460;-66
2023/11/27 05:38:26;;;;;;;6.43;3.00;;;3.20;98.00;;;;;;4975306;28;20473;-66
2023/11/27 05:40:53;;;;;;;4.97;2.70;;;3.20;98.00;;;;;;4974082;28;20489;-66
2023/11/27 05:43:20;;;;;;;4.67;2.50;;;3.10;98.00;;;;;;4975289;28;20818;-66
2023/11/27 05:45:47;;;;;;;5.17;3.00;;;3.20;98.00;;;;;;4974023;28;20455;-66
2023/11/27 05:48:15;;;;;;;5.23;2.70;;;3.20;98.00;;;;;;4975179;28;20460;-66
2023/11/27 05:50:46;;;;;;;6.90;2.80;;;3.20;98.00;;;;;;4975465;28;20842;-65
2023/11/27 05:53:13;;;;;;;6.00;3.23;;;3.10;98.00;;;;;;4974751;28;20835;-66
2023/11/27 05:55:40;;;;;;;6.40;3.40;;;3.10;98.00;;;;;;4973878;28;20533;-65
2023/11/27 05:58:08;;;;;;;6.77;3.13;;;3.10;98.00;;;;;;4975083;28;20501;-66
2023/11/27 06:00:35;;;;;;;5.57;3.00;;;3.10;98.00;;;;;;4974684;28;20457;-66
2023/11/27 06:03:02;;;;;;;5.43;2.77;;;3.10;98.00;;;;;;4973590;28;20458;-66
2023/11/27 06:05:29;;;;;;;6.07;3.00;;;3.00;98.00;;;;;;4973777;28;20548;-67
2023/11/27 06:07:58;;;;;;;3.97;2.67;;;2.90;98.00;;;;;;4974781;28;20454;-66
2023/11/27 06:10:25;;;;;;;5.93;3.23;;;2.90;98.00;;;;;;4974742;28;20453;-66
2023/11/27 06:12:52;;;;;;;6.00;3.30;;;2.90;98.00;;;;;;4974584;28;20537;-66
2023/11/27 06:15:19;;;;;;;7.27;3.53;;;2.80;98.00;;;;;;4974669;28;20812;-66
2023/11/27 06:17:46;;;;;;;8.30;3.70;;;2.80;98.00;;;;;;4973669;28;20477;-66
2023/11/27 06:20:14;;;;;;;5.30;2.97;;;2.80;98.00;;;;;;4974493;28;20461;-66
2023/11/27 06:22:41;;;;;;;5.67;2.87;;;2.90;98.00;;;;;;4974429;28;20467;-66
2023/11/27 06:25:11;;;;;;;4.03;2.77;;;2.90;98.00;;;;;;4974292;28;20458;-66
2023/11/27 06:27:39;;;;;;;5.97;2.80;;;2.90;98.00;;;;;;4974602;28;20550;-66
2023/11/27 06:30:10;;;;;;;4.73;2.87;;;3.00;98.00;;;;;;4974338;28;20494;-66
2023/11/27 06:32:37;;;;;;;4.70;2.97;;;3.00;98.00;;;;;;4973121;28;20582;-66
2023/11/27 06:35:05;;;;;;;8.60;3.03;;;3.00;98.00;;;;;;4972890;28;20510;-66
2023/11/27 06:37:32;;;;;;;6.57;3.07;;;3.00;98.00;;;;;;4974317;28;20462;-66
2023/11/27 06:39:59;;;;;;;5.40;3.00;;;3.00;98.00;;;;;;4974183;28;20462;-67
2023/11/27 06:42:30;;;;;;;6.00;2.97;;;3.10;98.00;;;;;;4974180;28;20451;-67
2023/11/27 06:44:57;;;;;;;5.90;2.50;;;3.00;98.00;;;;;;4974339;28;20867;-66
2023/11/27 06:47:25;;;;;;;4.60;2.60;;;3.00;98.00;;;;;;4973940;28;20546;-66
2023/11/27 06:49:53;;;;;;;3.97;2.70;;;3.10;98.00;;;;;;4973951;28;20460;-66
2023/11/27 06:52:20;;;;;;;2.47;2.10;;;3.20;98.00;;;;;;4973737;28;21022;-66
2023/11/27 06:54:47;;;;;;;4.60;2.47;;;3.20;98.00;;;;;;4973855;28;20462;-67
2023/11/27 06:57:15;;;;;;;3.90;2.37;;;3.20;98.00;;;;;;4972797;28;20467;-66
2023/11/27 06:59:43;;;;;;;3.43;2.13;;;3.20;98.00;;;;;;4973897;28;20966;-66
2023/11/27 07:02:10;;;;;;;5.67;2.60;;;3.00;98.00;;;;;;4973796;28;20462;-66
2023/11/27 07:04:39;;;;;;;4.80;3.00;;;3.00;98.00;;;;;;4972724;28;20481;-66
2023/11/27 07:07:08;;;;;;;4.50;2.50;;;3.10;98.00;;;;;;4973729;28;20493;-66
2023/11/27 07:09:37;;;;;;;4.73;2.83;;;2.90;98.00;;;;;;4973684;28;20454;-61
2023/11/27 07:12:04;;;;;;;4.73;2.60;;;2.80;98.00;;;;;;4973620;28;20509;-61
2023/11/27 07:14:32;;;;;;;4.43;2.27;;;2.80;98.00;;;;;;4973694;28;20471;-62
2023/11/27 07:17:00;;;;;;;6.47;2.73;;;2.90;98.00;;;;;;4973586;28;20488;-62
2023/11/27 07:19:27;;;;;;;4.17;2.40;;;3.10;98.00;;;;;;4973494;28;20463;-63
2023/11/27 07:21:55;;;;;;;5.10;2.70;;;3.00;98.00;;;;;;4973694;28;20547;-62
2023/11/27 07:24:22;;;;;;;6.47;3.07;;;2.90;98.00;;;;;;4973446;28;20450;-61
2023/11/27 07:26:49;;;;;;;5.00;2.70;;;2.90;98.00;;;;;;4973633;28;20860;-61
2023/11/27 07:29:16;;;;;;;2.80;2.43;;;2.90;98.00;;;;;;4973527;28;20454;-61
2023/11/27 07:31:44;;;;;;;6.90;2.93;;;2.90;98.00;;;;;;4973472;28;20462;-61
2023/11/27 07:34:13;;;;;;;3.83;2.43;;;3.10;98.00;;;;;;4973412;28;20543;-62
2023/11/27 07:36:40;;;;;;;5.57;3.20;;;3.00;98.00;;;;;;4973522;28;20461;-61
2023/11/27 07:39:08;;;;;;;4.80;2.77;;;3.10;98.00;;;;;;4973642;28;20466;-61
2023/11/27 07:41:35;;;;;;;7.37;3.40;;;3.20;98.00;;;;;;4988346;28;20447;-62
2023/11/27 07:44:02;;;;;;;7.67;3.40;;;3.30;98.00;;;;;;4973201;28;20818;-62
2023/11/27 07:46:29;;;;;;;7.97;3.27;;;3.30;98.00;;;;;;4973509;28;20945;-62
2023/11/27 07:48:57;;;;;;;9.70;4.20;;;3.40;98.00;;;;;;4973143;28;20479;-62
2023/11/27 07:51:25;;;;;;;7.83;3.73;;;3.40;98.00;;;;;;4973052;28;20459;-62
2023/11/27 07:53:52;;;;;;;10.87;3.60;;;3.50;98.00;;;;;;4972976;28;20549;-61
2023/11/27 07:56:27;;;;;;;6.20;3.10;;;3.50;98.00;;;;;;4973234;28;20509;-62
2023/11/27 07:58:54;;;;;;;5.00;3.00;;;3.50;98.00;;;;;;4972900;28;20491;-62
2023/11/27 08:01:22;;;;;;;5.90;2.83;;;3.50;98.00;;;;;;4972817;28;20448;-62
2023/11/27 08:03:50;;;;;;;6.80;3.17;;;3.60;98.00;;;;;;4972919;28;20947;-61
2023/11/27 08:06:19;;;;;;;6.37;3.30;;;3.60;98.00;;;;;;4973037;28;20950;-62
2023/11/27 08:08:50;;;;;;;5.47;2.93;;;3.60;98.00;;;;;;4972819;28;20459;-61
2023/11/27 08:11:35;;;;;;;5.00;3.23;;;3.70;98.00;;;;;;4972869;28;20837;-61
2023/11/27 08:14:03;;;;;;;7.50;3.63;;;3.70;98.00;;;;;;4972727;28;20600;-62
2023/11/27 08:16:30;;;;;;;6.37;3.17;;;3.70;98.00;;;;;;4956381;28;20455;-61
2023/11/27 08:18:59;;;;;;;8.23;3.70;;;4.00;98.00;;;;;;4952971;28;20460;-62
2023/11/27 08:21:26;;;;;;;5.13;3.30;;;4.10;98.00;;;;;;4952901;28;20491;-62
2023/11/27 08:23:54;;;;;;;5.83;3.03;;;4.30;98.00;;;;;;4951479;28;20470;-62
2023/11/27 08:26:21;;;;;;;8.00;3.93;;;4.30;98.00;;;;;;4952750;28;20540;-61
2023/11/27 08:28:48;;;;;;;5.80;3.37;;;4.40;98.00;;;;;;4953209;28;20981;-61
2023/11/27 08:31:18;;;;;;;7.60;3.47;;;4.60;98.00;;;;;;4956407;28;20853;-61
2023/11/27 08:33:46;;;;;;;5.80;3.23;;;5.00;98.00;;;;;;4956284;28;20521;-61
2023/11/27 08:36:14;;;;;;;6.47;3.60;;;5.00;98.00;;;;;;4956246;28;20515;-61
2023/11/27 08:38:41;;;;;;;8.23;4.03;;;5.10;98.00;;;;;;4956321;28;20959;-61
2023/11/27 08:41:11;;;;;;;8.43;3.80;;;5.10;98.00;;;;;;4955198;29;20455;-61
2023/11/27 08:43:40;;;;;;;7.20;4.10;;;5.00;98.00;;;;;;4956338;28;20462;-61
2023/11/27 08:46:08;;;;;;;8.40;4.20;;;5.10;98.00;;;;;;4956017;28;20989;-62
2023/11/27 08:48:35;;;;;;;10.43;3.90;;;5.10;98.00;;;;;;4956186;28;20452;-62
2023/11/27 08:51:02;;;;;;;8.17;4.63;;;5.10;98.00;;;;;;4956180;28;20959;-61
2023/11/27 08:53:30;;;;;;;7.33;3.87;;;5.10;98.00;;;;;;4956210;28;20486;-61
2023/11/27 08:55:57;;;;;;;7.87;3.77;;;5.30;98.00;;;;;;4956042;28;20482;-61
2023/11/27 08:58:26;;;;;;;11.67;4.07;;;5.40;98.00;;;;;;4955922;28;20464;-61
2023/11/27 09:00:53;;;;;;;10.27;4.53;;;5.30;98.00;;;;;;4955949;28;20974;-61
2023/11/27 09:03:20;;;;;;;7.77;3.97;;;5.30;98.00;;;;;;4956016;28;20878;-61
2023/11/27 09:05:47;;;;;;;8.57;3.87;;;5.30;98.00;;;;;;4955788;28;20454;-61
2023/11/27 09:08:15;;;;;;;8.00;3.83;;;5.30;98.00;;;;;;4955865;28;20530;-61
2023/11/27 09:10:44;;;;;;;7.20;3.67;;;5.30;98.00;;;;;;4955795;28;20450;-61
2023/11/27 09:13:12;;;;;;;11.10;4.37;;;5.20;98.00;;;;;;4955962;28;20572;-61
2023/11/27 09:15:41;;;;;;;7.10;3.73;;;5.20;98.00;;;;;;4956506;28;21084;-60
2023/11/27 09:18:08;;;;;;;7.50;3.83;;;5.20;98.00;;;;;;4956329;28;20991;-60
2023/11/27 09:20:35;;;;;;;7.07;3.60;;;5.30;98.00;;;;;;4956487;28;20537;-61
2023/11/27 09:23:03;;;;;;;9.20;3.70;;;5.40;98.00;;;;;;4956505;28;20479;-61
2023/11/27 09:25:30;;;;;;;9.53;4.30;;;5.30;98.00;;;;;;4956553;28;20997;-60
2023/11/27 09:27:57;;;;;;;7.43;3.93;;;5.20;98.00;;;;;;4956223;28;20996;-61
2023/11/27 09:30:27;;;;;;;7.40;3.97;;;5.30;98.00;;;;;;4956181;28;20550;-60
2023/11/27 09:32:55;;;;;;;9.30;4.10;;;5.30;98.00;;;;;;4956441;28;20510;-61
2023/11/27 09:35:23;;;;;;;7.00;3.27;;;5.60;98.00;;;;;;4955994;28;20476;-60
2023/11/27 09:37:50;;;;;;;8.83;4.20;;;5.70;98.00;;;;;;4955806;28;20952;-61
2023/11/27 09:40:19;;;;;;;14.03;5.60;;;5.70;98.00;;;;;;4955839;28;20461;-60
2023/11/27 09:42:47;;;;;;;4.67;3.10;;;5.70;98.00;;;;;;4955704;28;20465;-61
2023/11/27 09:45:16;;;;;;;5.47;3.37;;;5.70;98.00;;;;;;4955201;28;20830;-61
2023/11/27 09:47:44;;;;;;;4.43;2.50;;;5.70;98.00;;;;;;4963642;28;21063;-61
2023/11/27 09:50:13;;;;;;;5.20;2.63;;;5.70;98.00;;;;;;4954541;29;20828;-64
2023/11/27 09:52:52;;;;;;;5.50;2.80;;;5.80;98.00;;;;;;4955465;28;20452;-61
2023/11/27 09:55:20;;;;;;;5.73;3.00;;;7.10;98.00;;;;;;4962864;28;20454;-63
2023/11/27 09:57:49;;;;;;;7.80;3.87;;;8.30;98.00;;;;;;4974767;28;20490;-61
2023/11/27 10:00:19;;;;;;;7.47;3.70;;;8.80;98.00;;;;;;4974821;28;20468;-61
2023/11/27 10:02:51;;;;;;;9.43;4.13;;;8.70;98.00;;;;;;4974832;28;20458;-61
2023/11/27 10:05:21;;;;;;;8.40;3.80;;;8.50;98.00;;;;;;4974527;28;20475;-60
2023/11/27 10:07:50;;;;;;;8.83;3.73;;;7.90;98.00;;;;;;4974554;28;20506;-60
2023/11/27 10:10:24;;;;;;;9.87;4.10;;;7.50;98.00;;;;;;4974519;28;20907;-60
2023/11/27 10:12:51;;;;;;;7.43;3.43;;;7.20;98.00;;;;;;4974619;28;20454;-60
2023/11/27 10:15:20;;;;;;;8.00;4.37;;;7.10;98.00;;;;;;4973997;28;20446;-61
2023/11/27 10:17:48;;;;;;;7.17;3.57;;;7.00;98.00;;;;;;4972784;28;20461;-60
2023/11/27 10:20:18;;;;;;;7.30;4.00;;;6.80;98.00;;;;;;4973882;28;20635;-61
2023/11/27 10:22:47;;;;;;;7.40;3.70;;;6.60;98.00;;;;;;4973899;28;20501;-60
2023/11/27 10:25:14;;;;;;;8.60;3.97;;;6.60;98.00;;;;;;4973691;28;20975;-61
2023/11/27 10:27:43;;;;;;;7.23;3.63;;;6.50;98.00;;;;;;4973698;28;20548;-61
2023/11/27 10:30:20;;;;;;;8.40;4.17;;;6.70;98.00;;;;;;4974016;28;20896;-60
2023/11/27 10:32:47;;;;;;;10.40;4.47;;;6.60;98.00;;;;;;4973750;28;20456;-60
2023/11/27 10:35:14;;;;;;;6.40;3.83;;;6.60;98.00;;;;;;4973538;28;20469;-61
2023/11/27 10:37:42;;;;;;;8.47;3.80;;;6.40;98.00;;;;;;4973621;28;20466;-60
2023/11/27 10:40:14;;;;;;;7.80;3.90;;;6.60;98.00;;;;;;4973406;28;20482;-61
2023/11/27 10:42:47;;;;;;;6.63;3.93;;;6.80;98.00;;;;;;4973536;28;21028;-61
2023/11/27 10:45:19;;;;;;;8.17;3.60;;;6.70;98.00;;;;;;4973311;28;20513;-60
2023/11/27 10:47:48;;;;;;;6.93;3.60;;;6.70;98.00;;;;;;4973329;28;20570;-61
2023/11/27 10:50:16;;;;;;;14.20;3.83;;;6.80;98.00;;;;;;4972205;28;20458;-60
2023/11/27 10:52:47;;;;;;;10.00;4.33;;;7.00;98.00;;;;;;4972703;28;20522;-61
2023/11/27 10:55:18;;;;;;;6.87;3.80;;;7.10;98.00;;;;;;4973027;28;20459;-60
2023/11/27 10:57:45;;;;;;;6.00;3.10;;;7.20;98.00;;;;;;4973156;28;21011;-64
2023/11/27 11:00:18;;;;;;;7.33;3.40;;;8.10;98.00;;;;;;4973001;28;20470;-61
2023/11/27 11:02:50;;;;;;;9.67;3.50;;;8.70;98.00;;;;;;4973093;28;20466;-62
2023/11/27 11:05:27;;;;;;;6.80;3.73;;;9.10;98.00;;;;;;4973004;28;20453;-62
2023/11/27 11:07:56;;;;;;;10.43;3.47;;;9.60;98.00;;;;;;4972998;28;20548;-60
2023/11/27 11:10:26;;;;;;;11.53;4.53;;;10.20;98.00;;;;;;4971837;28;20754;-62
2023/11/27 11:12:55;;;;;;;7.10;3.80;;;11.00;98.00;;;;;;4972980;28;20490;-62
2023/11/27 11:15:33;;;;;;;9.33;3.80;;;11.00;98.00;;;;;;4962148;28;20485;-62
2023/11/27 11:18:10;;;;;;;8.27;4.27;;;10.60;98.00;;;;;;4953757;28;20489;-62
2023/11/27 11:20:55;;;;;;;7.60;3.60;;;10.30;98.00;;;;;;4953725;28;20536;-62
2023/11/27 11:23:29;;;;;;;7.47;3.70;;;9.90;98.00;;;;;;4953401;28;20526;-62
2023/11/27 11:26:22;;;;;;;8.37;4.13;;;9.60;98.00;;;;;;4953404;28;20549;-62
2023/11/27 11:29:00;;;;;;;9.33;4.40;;;9.40;98.00;;;;;;4953302;28;20494;-61
2023/11/27 11:31:38;;;;;;;7.60;3.97;;;9.10;98.00;;;;;;4953489;29;20868;-62
2023/11/27 11:34:06;;;;;;;8.53;3.60;;;9.00;98.00;;;;;;4953095;28;20489;-62
2023/11/27 11:36:35;;;;;;;8.57;3.97;;;8.90;98.00;;;;;;4953433;28;20496;-61
2023/11/27 11:39:07;;;;;;;5.33;2.97;;;9.00;98.00;;;;;;5148498;23;21001;-68
2023/11/27 11:41:37;;;;;;;4.83;2.90;;;9.10;98.00;;;;;;4953273;28;21034;-68
2023/11/27 11:44:17;;;;;;;3.57;2.60;;;8.90;98.00;;;;;;4953133;28;20486;-68
2023/11/27 11:46:45;;;;;;;3.00;2.17;;;8.80;98.00;;;;;;4953109;28;20494;-68
2023/11/27 11:49:18;;;;;;;3.73;2.13;;;8.60;98.00;;;;;;4967767;28;20545;-68
2023/11/27 11:52:00;;;;;;;4.10;2.20;;;8.60;98.00;;;;;;4953145;28;20461;-68
2023/11/27 11:54:33;;;;;;;3.20;2.03;;;8.40;98.00;;;;;;4952406;28;20493;-68
2023/11/27 11:57:14;;;;;;;4.83;2.63;;;8.40;98.00;;;;;;4952850;28;20971;-68
2023/11/27 11:59:46;;;;;;;5.40;2.10;;;8.10;98.00;;;;;;4952863;28;20819;-68
2023/11/27 12:02:14;;;;;;;5.80;2.47;;;8.00;98.00;;;;;;4953055;28;20465;-69
2023/11/27 12:04:42;;;;;;;3.33;2.30;;;7.90;98.00;;;;;;4955300;28;20452;-68
2023/11/27 12:07:13;;;;;;;5.07;2.60;;;7.80;98.00;;;;;;4956987;28;20454;-68
2023/11/27 12:09:41;;;;;;;3.43;2.17;;;7.80;98.00;;;;;;4956876;28;20466;-68
2023/11/27 12:12:10;;;;;;;4.93;2.43;;;7.70;98.00;;;;;;4956913;28;20547;-69
2023/11/27 12:14:39;;;;;;;7.20;2.47;;;7.70;98.00;;;;;;4971195;28;20548;-70
2023/11/27 12:17:08;;;;;;;5.37;2.23;;;7.50;98.00;;;;;;4956848;28;20462;-70
2023/11/27 12:19:35;;;;;;;5.37;2.53;;;7.40;98.00;;;;;;4956680;28;20491;-70
2023/11/27 12:22:04;;;;;;;5.53;2.53;;;7.20;98.00;;;;;;4956787;28;21023;-70
2023/11/27 12:24:31;;;;;;;3.90;2.57;;;7.20;98.00;;;;;;4956538;28;20497;-68
2023/11/27 12:26:59;;;;;;;6.90;2.10;;;7.00;98.00;;;;;;4956468;28;20459;-68
2023/11/27 12:29:28;;;;;;;4.37;2.23;;;7.10;98.00;;;;;;4956563;28;20534;-67
2023/11/27 12:31:59;;;;;;;3.97;2.40;;;7.00;98.00;;;;;;4956904;28;20551;-66
2023/11/27 12:34:26;;;;;;;5.37;2.40;;;7.10;98.00;;;;;;4956323;28;21098;-66
2023/11/27 12:36:53;;;;;;;3.10;1.90;;;7.10;98.00;;;;;;4956370;28;20463;-68
2023/11/27 12:39:25;;;;;;;3.50;2.13;;;7.10;98.00;;;;;;4956261;28;20798;-68
2023/11/27 12:42:01;;;;;;;3.90;2.43;;;7.00;98.00;;;;;;4956670;28;20458;-68
2023/11/27 12:44:31;;;;;;;2.87;2.07;;;7.00;98.00;;;;;;4956667;28;20460;-67
2023/11/27 12:47:05;;;;;;;2.83;1.90;;;7.00;98.00;;;;;;4971045;28;20967;-67
2023/11/27 12:49:34;;;;;;;3.23;1.90;;;6.90;98.00;;;;;;4956366;28;20462;-67
2023/11/27 12:52:10;;;;;;;6.47;1.97;;;6.80;98.00;;;;;;4956165;28;20454;-68
2023/11/27 12:54:37;;;;;;;2.73;1.90;;;6.70;98.00;;;;;;4956491;28;20491;-67
2023/11/27 12:57:05;;;;;;;2.80;1.90;;;6.70;98.00;;;;;;4956138;28;20807;-67
2023/11/27 12:59:33;;;;;;;2.40;1.67;;;6.60;98.00;;;;;;4956117;28;20453;-67
2023/11/27 13:02:01;;;;;;;3.23;1.90;;;6.60;98.00;;;;;;4955267;28;20806;-67